createdAt,value
2017-12-25T00:00:46.477Z,0.00
2017-12-25T00:01:46.479Z,0.00
2017-12-25T00:02:46.481Z,0.00
2017-12-25T00:03:46.482Z,0.00
2017-12-25T00:04:46.488Z,0.00
2017-12-25T00:05:46.489Z,0.00
2017-12-25T00:06:46.490Z,0.00
2017-12-25T00:07:46.492Z,0.00
2017-12-25T00:08:46.493Z,0.00
2017-12-25T00:09:46.494Z,0.00
2017-12-25T00:10:46.497Z,0.00
2017-12-25T00:11:46.496Z,0.00
2017-12-25T00:12:46.500Z,0.00
2017-12-25T00:13:46.501Z,0.00
2017-12-25T00:14:46.503Z,0.00
2017-12-25T00:15:46.504Z,0.00
2017-12-25T00:16:46.506Z,0.00
2017-12-25T00:17:46.509Z,0.00
2017-12-25T00:18:46.511Z,0.00
2017-12-25T00:19:46.512Z,0.00
2017-12-25T00:20:46.514Z,0.00
2017-12-25T00:21:46.516Z,0.00
2017-12-25T00:22:46.518Z,0.00
2017-12-25T00:23:46.542Z,0.00
2017-12-25T00:24:46.521Z,0.00
2017-12-25T00:25:46.524Z,0.00
2017-12-25T00:26:46.525Z,0.00
2017-12-25T00:27:46.526Z,0.00
2017-12-25T00:28:46.527Z,0.00
2017-12-25T00:29:46.531Z,0.00
2017-12-25T00:30:46.533Z,0.00
2017-12-25T00:31:46.535Z,0.00
2017-12-25T00:32:46.593Z,0.00
2017-12-25T00:33:46.545Z,0.00
2017-12-25T00:34:46.543Z,0.00
2017-12-25T00:35:46.541Z,0.00
2017-12-25T00:36:46.544Z,0.00
2017-12-25T00:37:46.545Z,0.00
2017-12-25T00:38:46.547Z,0.00
2017-12-25T00:39:46.548Z,0.00
2017-12-25T00:40:46.551Z,0.00
2017-12-25T00:41:46.553Z,0.00
2017-12-25T00:42:46.558Z,0.00
2017-12-25T00:43:46.558Z,0.00
2017-12-25T00:44:46.558Z,0.00
2017-12-25T00:45:46.561Z,0.00
2017-12-25T00:46:46.561Z,0.00
2017-12-25T00:47:46.563Z,0.00
2017-12-25T00:48:46.566Z,0.00
2017-12-25T00:49:46.567Z,0.00
2017-12-25T00:50:46.571Z,0.00
2017-12-25T00:51:46.569Z,0.00
2017-12-25T00:52:46.571Z,0.00
2017-12-25T00:53:46.576Z,0.00
2017-12-25T00:54:46.576Z,0.00
2017-12-25T00:55:46.580Z,0.00
2017-12-25T00:56:46.579Z,0.00
2017-12-25T00:57:46.582Z,0.00
2017-12-25T00:58:46.588Z,0.00
2017-12-25T00:59:46.590Z,0.00
2017-12-25T01:00:46.591Z,0.00
2017-12-25T01:01:46.592Z,0.00
2017-12-25T01:02:46.593Z,0.00
2017-12-25T01:03:46.595Z,0.00
2017-12-25T01:04:46.595Z,0.00
2017-12-25T01:05:46.596Z,0.00
2017-12-25T01:06:46.598Z,0.00
2017-12-25T01:07:46.599Z,0.00
2017-12-25T01:08:46.601Z,0.00
2017-12-25T01:09:46.603Z,0.00
2017-12-25T01:10:46.607Z,0.00
2017-12-25T01:11:46.607Z,0.00
2017-12-25T01:12:46.608Z,0.00
2017-12-25T01:13:46.611Z,0.00
2017-12-25T01:14:46.613Z,0.00
2017-12-25T01:15:46.614Z,0.00
2017-12-25T01:16:46.615Z,0.00
2017-12-25T01:17:46.618Z,0.00
2017-12-25T01:18:46.620Z,0.00
2017-12-25T01:19:46.620Z,0.00
2017-12-25T01:20:46.623Z,0.00
2017-12-25T01:21:46.624Z,0.00
2017-12-25T01:22:46.626Z,0.00
2017-12-25T01:23:46.627Z,0.00
2017-12-25T01:24:46.629Z,0.00
2017-12-25T01:25:46.631Z,0.00
2017-12-25T01:26:46.639Z,0.00
2017-12-25T01:27:46.634Z,0.00
2017-12-25T01:28:46.636Z,0.00
2017-12-25T01:29:46.646Z,0.00
2017-12-25T01:30:46.640Z,0.00
2017-12-25T01:31:46.641Z,0.00
2017-12-25T01:32:46.643Z,0.00
2017-12-25T01:33:46.649Z,0.00
2017-12-25T01:34:46.647Z,0.00
2017-12-25T01:35:46.649Z,0.00
2017-12-25T01:36:46.650Z,0.00
2017-12-25T01:37:46.652Z,0.00
2017-12-25T01:38:46.654Z,0.00
2017-12-25T01:39:46.655Z,0.00
2017-12-25T01:40:46.657Z,0.00
2017-12-25T01:41:46.659Z,0.00
2017-12-25T01:42:46.661Z,0.00
2017-12-25T01:43:46.663Z,0.00
2017-12-25T01:44:46.664Z,0.00
2017-12-25T01:45:46.666Z,0.00
2017-12-25T01:46:46.668Z,0.00
2017-12-25T01:47:46.670Z,0.00
2017-12-25T01:48:46.671Z,0.00
2017-12-25T01:49:46.673Z,0.00
2017-12-25T01:50:46.675Z,0.00
2017-12-25T01:51:46.676Z,0.00
2017-12-25T01:52:46.678Z,0.00
2017-12-25T01:53:46.680Z,0.00
2017-12-25T01:54:46.681Z,0.00
2017-12-25T01:55:46.683Z,0.00
2017-12-25T01:56:46.685Z,0.00
2017-12-25T01:57:46.688Z,0.00
2017-12-25T01:58:46.690Z,0.00
2017-12-25T01:59:46.690Z,0.00
2017-12-25T02:00:46.696Z,0.00
2017-12-25T02:01:46.694Z,0.00
2017-12-25T02:02:46.701Z,0.00
2017-12-25T02:03:46.697Z,0.00
2017-12-25T02:04:46.699Z,0.00
2017-12-25T02:05:46.701Z,0.00
2017-12-25T02:06:46.704Z,0.00
2017-12-25T02:07:46.712Z,0.00
2017-12-25T02:08:46.706Z,0.00
2017-12-25T02:09:46.707Z,0.00
2017-12-25T02:10:46.712Z,0.00
2017-12-25T02:11:46.711Z,0.00
2017-12-25T02:12:46.715Z,0.00
2017-12-25T02:13:46.715Z,0.00
2017-12-25T02:14:46.718Z,0.00
2017-12-25T02:15:46.719Z,0.00
2017-12-25T02:16:46.720Z,0.00
2017-12-25T02:17:46.722Z,0.00
2017-12-25T02:18:46.725Z,0.00
2017-12-25T02:19:46.726Z,0.00
2017-12-25T02:20:46.727Z,0.00
2017-12-25T02:21:46.729Z,0.00
2017-12-25T02:22:46.730Z,0.00
2017-12-25T02:23:46.732Z,0.00
2017-12-25T02:24:46.732Z,0.00
2017-12-25T02:25:46.735Z,0.00
2017-12-25T02:26:46.738Z,0.00
2017-12-25T02:27:46.738Z,0.00
2017-12-25T02:28:46.743Z,0.00
2017-12-25T02:29:46.748Z,0.00
2017-12-25T02:30:46.746Z,0.00
2017-12-25T02:31:46.748Z,0.00
2017-12-25T02:32:46.748Z,0.00
2017-12-25T02:33:46.750Z,0.00
2017-12-25T02:34:46.752Z,0.00
2017-12-25T02:35:46.753Z,0.00
2017-12-25T02:36:46.755Z,0.00
2017-12-25T02:37:46.757Z,0.00
2017-12-25T02:38:46.762Z,0.00
2017-12-25T02:39:46.760Z,0.00
2017-12-25T02:40:46.762Z,0.00
2017-12-25T02:41:46.764Z,0.00
2017-12-25T02:42:46.767Z,0.00
2017-12-25T02:43:46.767Z,0.00
2017-12-25T02:44:46.770Z,0.00
2017-12-25T02:45:46.770Z,0.00
2017-12-25T02:46:46.777Z,0.00
2017-12-25T02:47:46.774Z,0.00
2017-12-25T02:48:46.775Z,0.00
2017-12-25T02:49:46.777Z,0.00
2017-12-25T02:50:46.780Z,0.00
2017-12-25T02:51:46.780Z,0.00
2017-12-25T02:52:46.783Z,0.00
2017-12-25T02:53:46.786Z,0.00
2017-12-25T02:54:46.786Z,0.00
2017-12-25T02:55:46.789Z,0.00
2017-12-25T02:56:46.790Z,0.00
2017-12-25T02:57:46.792Z,0.00
2017-12-25T02:58:46.793Z,0.00
2017-12-25T02:59:46.796Z,0.00
2017-12-25T03:00:46.799Z,0.00
2017-12-25T03:01:46.798Z,0.00
2017-12-25T03:02:46.802Z,0.00
2017-12-25T03:03:46.802Z,0.00
2017-12-25T03:04:46.804Z,0.00
2017-12-25T03:05:46.805Z,0.00
2017-12-25T03:06:46.809Z,0.00
2017-12-25T03:07:46.809Z,0.00
2017-12-25T03:08:46.810Z,0.00
2017-12-25T03:09:46.819Z,0.00
2017-12-25T03:10:46.815Z,0.00
2017-12-25T03:11:46.815Z,0.00
2017-12-25T03:12:46.818Z,0.00
2017-12-25T03:13:46.821Z,0.00
2017-12-25T03:14:46.821Z,0.00
2017-12-25T03:15:46.822Z,0.00
2017-12-25T03:16:46.824Z,0.00
2017-12-25T03:17:46.827Z,0.00
2017-12-25T03:18:46.829Z,0.00
2017-12-25T03:19:46.829Z,0.00
2017-12-25T03:20:46.831Z,0.00
2017-12-25T03:21:46.832Z,0.00
2017-12-25T03:22:46.835Z,0.00
2017-12-25T03:23:46.836Z,0.00
2017-12-25T03:24:46.836Z,0.00
2017-12-25T03:25:46.839Z,0.00
2017-12-25T03:26:46.841Z,0.00
2017-12-25T03:27:46.843Z,0.00
2017-12-25T03:28:46.843Z,0.00
2017-12-25T03:29:46.846Z,0.00
2017-12-25T03:30:46.852Z,0.00
2017-12-25T03:31:46.852Z,0.00
2017-12-25T03:32:46.851Z,0.00
2017-12-25T03:33:46.855Z,0.00
2017-12-25T03:34:46.856Z,0.00
2017-12-25T03:35:46.856Z,0.00
2017-12-25T03:36:46.859Z,0.00
2017-12-25T03:37:46.859Z,0.00
2017-12-25T03:38:46.862Z,0.00
2017-12-25T03:39:46.863Z,0.00
2017-12-25T03:40:46.865Z,0.00
2017-12-25T03:41:46.866Z,0.00
2017-12-25T03:42:46.869Z,0.00
2017-12-25T03:43:46.869Z,0.00
2017-12-25T03:44:46.870Z,0.00
2017-12-25T03:45:46.874Z,0.00
2017-12-25T03:46:46.875Z,0.00
2017-12-25T03:47:46.876Z,0.00
2017-12-25T03:48:46.878Z,0.00
2017-12-25T03:49:46.879Z,0.00
2017-12-25T03:50:46.881Z,0.00
2017-12-25T03:51:46.882Z,0.00
2017-12-25T03:52:46.904Z,0.00
2017-12-25T03:53:46.886Z,0.00
2017-12-25T03:54:46.888Z,0.00
2017-12-25T03:55:46.888Z,0.00
2017-12-25T03:56:46.893Z,0.00
2017-12-25T03:57:46.893Z,0.00
2017-12-25T03:58:46.895Z,0.00
2017-12-25T03:59:46.895Z,0.00
2017-12-25T04:00:46.900Z,0.00
2017-12-25T04:01:46.900Z,0.00
2017-12-25T04:02:46.901Z,0.00
2017-12-25T04:03:46.903Z,0.00
2017-12-25T04:04:46.904Z,0.00
2017-12-25T04:05:46.914Z,0.00
2017-12-25T04:06:46.911Z,0.00
2017-12-25T04:07:46.912Z,0.00
2017-12-25T04:08:46.913Z,0.00
2017-12-25T04:09:46.914Z,0.00
2017-12-25T04:10:46.916Z,0.00
2017-12-25T04:11:46.917Z,0.00
2017-12-25T04:12:46.918Z,0.00
2017-12-25T04:13:46.920Z,0.00
2017-12-25T04:14:46.922Z,0.00
2017-12-25T04:15:46.926Z,0.00
2017-12-25T04:16:46.925Z,0.00
2017-12-25T04:17:46.927Z,0.00
2017-12-25T04:18:46.930Z,0.00
2017-12-25T04:19:46.932Z,0.00
2017-12-25T04:20:46.934Z,0.00
2017-12-25T04:21:46.935Z,0.00
2017-12-25T04:22:46.937Z,0.00
2017-12-25T04:23:46.939Z,0.00
2017-12-25T04:24:46.940Z,0.00
2017-12-25T04:25:46.942Z,0.00
2017-12-25T04:26:46.944Z,0.00
2017-12-25T04:27:46.946Z,0.00
2017-12-25T04:28:46.953Z,0.00
2017-12-25T04:29:46.954Z,0.00
2017-12-25T04:30:46.956Z,0.00
2017-12-25T04:31:46.953Z,0.00
2017-12-25T04:32:46.956Z,0.00
2017-12-25T04:33:46.957Z,0.00
2017-12-25T04:34:46.959Z,0.00
2017-12-25T04:35:46.960Z,0.00
2017-12-25T04:36:46.962Z,0.00
2017-12-25T04:37:46.980Z,0.00
2017-12-25T04:38:46.976Z,0.00
2017-12-25T04:39:46.977Z,0.00
2017-12-25T04:40:46.979Z,0.00
2017-12-25T04:41:46.980Z,0.00
2017-12-25T04:42:46.982Z,0.00
2017-12-25T04:43:46.983Z,0.00
2017-12-25T04:44:46.979Z,0.00
2017-12-25T04:45:46.982Z,0.00
2017-12-25T04:46:47.024Z,0.00
2017-12-25T04:47:46.983Z,0.00
2017-12-25T04:48:46.986Z,0.00
2017-12-25T04:49:46.988Z,0.00
2017-12-25T04:50:46.991Z,0.00
2017-12-25T04:51:46.991Z,0.00
2017-12-25T04:52:46.994Z,0.00
2017-12-25T04:53:46.996Z,0.00
2017-12-25T04:54:47.001Z,0.00
2017-12-25T04:55:47.004Z,0.00
2017-12-25T04:56:47.004Z,0.00
2017-12-25T04:57:47.005Z,0.00
2017-12-25T04:58:47.006Z,0.00
2017-12-25T04:59:47.008Z,0.00
2017-12-25T05:00:47.010Z,0.00
2017-12-25T05:01:47.014Z,0.00
2017-12-25T05:02:47.016Z,0.00
2017-12-25T05:03:47.017Z,0.00
2017-12-25T05:04:47.019Z,0.00
2017-12-25T05:05:47.021Z,0.00
2017-12-25T05:06:47.024Z,0.00
2017-12-25T05:07:47.025Z,0.00
2017-12-25T05:08:47.030Z,0.00
2017-12-25T05:09:47.029Z,0.00
2017-12-25T05:10:47.032Z,0.00
2017-12-25T05:11:47.032Z,0.00
2017-12-25T05:12:47.041Z,0.00
2017-12-25T05:13:47.042Z,0.00
2017-12-25T05:14:47.042Z,0.00
2017-12-25T05:15:47.043Z,0.00
2017-12-25T05:16:47.044Z,0.00
2017-12-25T05:17:47.055Z,0.00
2017-12-25T05:18:47.044Z,0.00
2017-12-25T05:19:47.046Z,0.00
2017-12-25T05:20:47.047Z,0.00
2017-12-25T05:21:47.048Z,0.00
2017-12-25T05:22:47.050Z,0.00
2017-12-25T05:23:47.050Z,0.00
2017-12-25T05:24:47.054Z,0.00
2017-12-25T05:25:47.053Z,0.00
2017-12-25T05:26:47.054Z,0.00
2017-12-25T05:27:47.055Z,0.00
2017-12-25T05:28:47.060Z,0.00
2017-12-25T05:29:47.058Z,0.00
2017-12-25T05:30:47.061Z,0.00
2017-12-25T05:31:47.070Z,0.00
2017-12-25T05:32:47.073Z,0.00
2017-12-25T05:33:47.071Z,0.00
2017-12-25T05:34:47.074Z,0.00
2017-12-25T05:35:47.079Z,0.00
2017-12-25T05:36:47.075Z,0.00
2017-12-25T05:37:47.075Z,0.00
2017-12-25T05:38:47.073Z,0.00
2017-12-25T05:39:47.074Z,0.00
2017-12-25T05:40:47.075Z,0.00
2017-12-25T05:41:47.076Z,0.00
2017-12-25T05:42:47.078Z,0.00
2017-12-25T05:43:47.080Z,0.00
2017-12-25T05:44:47.086Z,0.00
2017-12-25T05:45:47.078Z,0.00
2017-12-25T05:46:47.080Z,0.00
2017-12-25T05:47:47.082Z,0.00
2017-12-25T05:48:47.083Z,0.00
2017-12-25T05:49:47.083Z,0.00
2017-12-25T05:50:47.085Z,0.00
2017-12-25T05:51:47.085Z,0.00
2017-12-25T05:52:47.087Z,0.00
2017-12-25T05:53:47.088Z,0.00
2017-12-25T05:54:47.090Z,0.00
2017-12-25T05:55:47.090Z,0.00
2017-12-25T05:56:47.092Z,0.00
2017-12-25T05:57:47.094Z,0.00
2017-12-25T05:58:47.095Z,0.00
2017-12-25T05:59:47.096Z,0.00
2017-12-25T06:00:47.097Z,0.00
2017-12-25T06:01:47.100Z,0.00
2017-12-25T06:02:47.101Z,0.00
2017-12-25T06:03:47.102Z,0.00
2017-12-25T06:04:47.103Z,0.00
2017-12-25T06:05:47.105Z,0.00
2017-12-25T06:06:47.107Z,0.00
2017-12-25T06:07:47.108Z,0.00
2017-12-25T06:08:47.110Z,0.00
2017-12-25T06:09:47.111Z,0.00
2017-12-25T06:10:47.114Z,0.00
2017-12-25T06:11:47.114Z,0.00
2017-12-25T06:12:47.115Z,0.00
2017-12-25T06:13:47.116Z,0.00
2017-12-25T06:14:47.118Z,0.00
2017-12-25T06:15:47.121Z,0.00
2017-12-25T06:16:47.123Z,0.00
2017-12-25T06:17:47.124Z,0.00
2017-12-25T06:18:47.126Z,0.00
2017-12-25T06:19:47.127Z,0.00
2017-12-25T06:20:47.130Z,0.00
2017-12-25T06:21:47.131Z,0.00
2017-12-25T06:22:47.133Z,0.00
2017-12-25T06:23:47.135Z,0.00
2017-12-25T06:24:47.139Z,0.00
2017-12-25T06:25:47.138Z,0.00
2017-12-25T06:26:47.140Z,0.00
2017-12-25T06:27:47.142Z,0.00
2017-12-25T06:28:47.143Z,0.00
2017-12-25T06:29:47.148Z,0.00
2017-12-25T06:30:47.147Z,0.00
2017-12-25T06:31:47.148Z,0.00
2017-12-25T06:32:47.152Z,0.00
2017-12-25T06:33:47.171Z,0.00
2017-12-25T06:34:47.155Z,0.00
2017-12-25T06:35:47.156Z,0.00
2017-12-25T06:36:47.158Z,0.00
2017-12-25T06:37:47.160Z,0.00
2017-12-25T06:38:47.181Z,0.00
2017-12-25T06:39:47.174Z,0.00
2017-12-25T06:40:47.174Z,0.00
2017-12-25T06:41:47.175Z,0.00
2017-12-25T06:42:47.176Z,0.00
2017-12-25T06:43:47.178Z,0.00
2017-12-25T06:44:47.175Z,0.00
2017-12-25T06:45:47.175Z,0.00
2017-12-25T06:46:47.180Z,0.00
2017-12-25T06:47:47.186Z,0.00
2017-12-25T06:48:47.182Z,0.00
2017-12-25T06:49:47.185Z,0.00
2017-12-25T06:50:47.186Z,0.00
2017-12-25T06:51:47.188Z,0.00
2017-12-25T06:52:47.193Z,0.00
2017-12-25T06:53:47.192Z,0.00
2017-12-25T06:54:47.199Z,0.00
2017-12-25T06:55:47.197Z,0.00
2017-12-25T06:56:47.199Z,0.00
2017-12-25T06:57:47.200Z,0.00
2017-12-25T06:58:47.203Z,0.00
2017-12-25T06:59:47.205Z,0.00
2017-12-25T07:00:47.207Z,0.00
2017-12-25T07:01:47.219Z,0.00
2017-12-25T07:02:47.212Z,0.00
2017-12-25T07:03:47.213Z,0.00
2017-12-25T07:04:47.215Z,0.00
2017-12-25T07:05:47.218Z,0.00
2017-12-25T07:06:47.219Z,0.00
2017-12-25T07:07:47.221Z,0.00
2017-12-25T07:08:47.224Z,0.00
2017-12-25T07:09:47.233Z,0.00
2017-12-25T07:10:47.228Z,0.00
2017-12-25T07:11:47.230Z,0.00
2017-12-25T07:12:47.231Z,0.00
2017-12-25T07:13:47.235Z,0.00
2017-12-25T07:14:47.237Z,0.00
2017-12-25T07:15:47.238Z,0.00
2017-12-25T07:16:47.239Z,0.00
2017-12-25T07:17:47.242Z,0.00
2017-12-25T07:18:47.246Z,0.00
2017-12-25T07:19:47.257Z,0.00
2017-12-25T07:20:47.260Z,0.00
2017-12-25T07:21:47.259Z,0.00
2017-12-25T07:22:47.262Z,0.00
2017-12-25T07:23:47.263Z,0.00
2017-12-25T07:24:47.263Z,0.00
2017-12-25T07:25:47.261Z,0.00
2017-12-25T07:26:47.262Z,0.00
2017-12-25T07:27:47.263Z,0.00
2017-12-25T07:28:47.266Z,0.00
2017-12-25T07:29:47.268Z,0.00
2017-12-25T07:30:47.275Z,0.00
2017-12-25T07:31:47.271Z,0.00
2017-12-25T07:32:47.274Z,0.00
2017-12-25T07:33:47.276Z,0.00
2017-12-25T07:34:47.283Z,0.00
2017-12-25T07:35:47.279Z,0.00
2017-12-25T07:36:47.281Z,0.00
2017-12-25T07:37:47.283Z,0.00
2017-12-25T07:38:47.286Z,0.00
2017-12-25T07:39:47.287Z,0.00
2017-12-25T07:40:47.290Z,4.00
2017-12-25T07:41:47.292Z,4.00
2017-12-25T07:42:47.294Z,4.00
2017-12-25T07:43:47.296Z,4.00
2017-12-25T07:44:47.298Z,4.00
2017-12-25T07:45:47.302Z,4.00
2017-12-25T07:46:47.303Z,4.00
2017-12-25T07:47:47.307Z,4.00
2017-12-25T07:48:47.308Z,4.00
2017-12-25T07:49:47.310Z,4.00
2017-12-25T07:50:47.312Z,4.00
2017-12-25T07:51:47.313Z,4.00
2017-12-25T07:52:47.322Z,0.00
2017-12-25T07:53:47.319Z,0.00
2017-12-25T07:54:47.321Z,0.00
2017-12-25T07:55:47.322Z,0.00
2017-12-25T07:56:47.324Z,0.00
2017-12-25T07:57:47.334Z,0.00
2017-12-25T07:58:47.331Z,0.00
2017-12-25T07:59:47.331Z,0.00
2017-12-25T08:00:47.334Z,0.00
2017-12-25T08:01:47.337Z,4.00
2017-12-25T08:02:47.338Z,0.00
2017-12-25T08:03:47.338Z,0.00
2017-12-25T08:04:47.341Z,0.00
2017-12-25T08:05:47.344Z,4.00
2017-12-25T08:06:47.347Z,4.00
2017-12-25T08:07:47.348Z,4.00
2017-12-25T08:08:47.350Z,4.00
2017-12-25T08:09:47.354Z,4.00
2017-12-25T08:10:47.355Z,4.00
2017-12-25T08:11:47.356Z,4.00
2017-12-25T08:12:47.360Z,4.00
2017-12-25T08:13:47.363Z,4.00
2017-12-25T08:14:47.365Z,4.00
2017-12-25T08:15:47.366Z,8.00
2017-12-25T08:16:47.368Z,4.00
2017-12-25T08:17:47.380Z,4.00
2017-12-25T08:18:47.373Z,4.00
2017-12-25T08:19:47.375Z,4.00
2017-12-25T08:20:47.378Z,8.00
2017-12-25T08:21:47.380Z,4.00
2017-12-25T08:22:47.385Z,8.00
2017-12-25T08:23:47.385Z,8.00
2017-12-25T08:24:47.387Z,8.00
2017-12-25T08:25:47.390Z,8.00
2017-12-25T08:26:47.392Z,4.00
2017-12-25T08:27:47.393Z,8.00
2017-12-25T08:28:47.395Z,8.00
2017-12-25T08:29:47.398Z,8.00
2017-12-25T08:30:47.400Z,8.00
2017-12-25T08:31:47.402Z,8.00
2017-12-25T08:32:47.405Z,4.00
2017-12-25T08:33:47.416Z,8.00
2017-12-25T08:34:47.416Z,8.00
2017-12-25T08:35:47.417Z,8.00
2017-12-25T08:36:47.418Z,12.00
2017-12-25T08:37:47.426Z,8.00
2017-12-25T08:38:47.419Z,8.00
2017-12-25T08:39:47.422Z,8.00
2017-12-25T08:40:47.424Z,8.00
2017-12-25T08:41:47.425Z,8.00
2017-12-25T08:42:47.429Z,8.00
2017-12-25T08:43:47.430Z,8.00
2017-12-25T08:44:47.434Z,8.00
2017-12-25T08:45:47.436Z,8.00
2017-12-25T08:46:47.438Z,8.00
2017-12-25T08:47:47.443Z,8.00
2017-12-25T08:48:47.443Z,8.00
2017-12-25T08:49:47.444Z,12.00
2017-12-25T08:50:47.446Z,12.00
2017-12-25T08:51:47.448Z,8.00
2017-12-25T08:52:47.450Z,12.00
2017-12-25T08:53:47.456Z,12.00
2017-12-25T08:54:47.456Z,8.00
2017-12-25T08:55:47.458Z,12.00
2017-12-25T08:56:47.461Z,12.00
2017-12-25T08:57:47.462Z,8.00
2017-12-25T08:58:47.466Z,12.00
2017-12-25T08:59:47.467Z,12.00
2017-12-25T09:00:47.468Z,12.00
2017-12-25T09:01:47.480Z,12.00
2017-12-25T09:02:47.475Z,12.00
2017-12-25T09:03:47.474Z,12.00
2017-12-25T09:04:47.478Z,12.00
2017-12-25T09:05:47.480Z,12.00
2017-12-25T09:06:47.481Z,12.00
2017-12-25T09:07:47.484Z,12.00
2017-12-25T09:08:47.486Z,12.00
2017-12-25T09:09:47.493Z,12.00
2017-12-25T09:10:47.497Z,12.00
2017-12-25T09:11:47.493Z,12.00
2017-12-25T09:12:47.497Z,12.00
2017-12-25T09:13:47.498Z,12.00
2017-12-25T09:14:47.500Z,12.00
2017-12-25T09:15:47.508Z,12.00
2017-12-25T09:16:47.505Z,12.00
2017-12-25T09:17:47.507Z,12.00
2017-12-25T09:18:47.511Z,16.00
2017-12-25T09:19:47.511Z,16.00
2017-12-25T09:20:47.513Z,16.00
2017-12-25T09:21:47.519Z,12.00
2017-12-25T09:22:47.519Z,16.00
2017-12-25T09:23:47.521Z,12.00
2017-12-25T09:24:47.523Z,16.00
2017-12-25T09:25:47.534Z,12.00
2017-12-25T09:26:47.533Z,12.00
2017-12-25T09:27:47.540Z,16.00
2017-12-25T09:28:47.536Z,16.00
2017-12-25T09:29:47.541Z,12.00
2017-12-25T09:30:47.540Z,16.00
2017-12-25T09:31:47.541Z,16.00
2017-12-25T09:32:47.543Z,16.00
2017-12-25T09:33:47.553Z,16.00
2017-12-25T09:34:47.548Z,12.00
2017-12-25T09:35:47.550Z,12.00
2017-12-25T09:36:47.553Z,12.00
2017-12-25T09:37:47.564Z,12.00
2017-12-25T09:38:47.558Z,16.00
2017-12-25T09:39:47.560Z,16.00
2017-12-25T09:40:47.563Z,16.00
2017-12-25T09:41:47.588Z,16.00
2017-12-25T09:42:47.567Z,16.00
2017-12-25T09:43:47.571Z,16.00
2017-12-25T09:44:47.577Z,16.00
2017-12-25T09:45:47.575Z,20.00
2017-12-25T09:46:47.578Z,16.00
2017-12-25T09:47:47.580Z,20.00
2017-12-25T09:48:47.581Z,20.00
2017-12-25T09:49:47.585Z,20.00
2017-12-25T09:50:47.588Z,16.00
2017-12-25T09:51:47.590Z,16.00
2017-12-25T09:52:47.591Z,16.00
2017-12-25T09:53:47.594Z,20.00
2017-12-25T09:54:47.597Z,20.00
2017-12-25T09:55:47.600Z,20.00
2017-12-25T09:56:47.603Z,20.00
2017-12-25T09:57:47.604Z,20.00
2017-12-25T09:58:47.606Z,20.00
2017-12-25T09:59:47.607Z,20.00
2017-12-25T10:00:47.612Z,20.00
2017-12-25T10:01:47.614Z,20.00
2017-12-25T10:02:47.620Z,16.00
2017-12-25T10:03:47.618Z,20.00
2017-12-25T10:04:47.619Z,20.00
2017-12-25T10:05:47.622Z,16.00
2017-12-25T10:06:47.624Z,16.00
2017-12-25T10:07:47.626Z,16.00
2017-12-25T10:08:47.628Z,20.00
2017-12-25T10:09:47.633Z,16.00
2017-12-25T10:10:47.633Z,16.00
2017-12-25T10:11:47.635Z,16.00
2017-12-25T10:12:47.637Z,16.00
2017-12-25T10:13:47.641Z,16.00
2017-12-25T10:14:47.640Z,20.00
2017-12-25T10:15:47.644Z,16.00
2017-12-25T10:16:47.646Z,16.00
2017-12-25T10:17:47.649Z,16.00
2017-12-25T10:18:47.652Z,16.00
2017-12-25T10:19:47.653Z,16.00
2017-12-25T10:20:47.674Z,20.00
2017-12-25T10:21:47.657Z,16.00
2017-12-25T10:22:47.661Z,20.00
2017-12-25T10:23:47.664Z,20.00
2017-12-25T10:24:47.669Z,20.00
2017-12-25T10:25:47.668Z,16.00
2017-12-25T10:26:47.670Z,20.00
2017-12-25T10:27:47.672Z,16.00
2017-12-25T10:28:47.674Z,16.00
2017-12-25T10:29:47.677Z,16.00
2017-12-25T10:30:47.680Z,16.00
2017-12-25T10:31:47.681Z,16.00
2017-12-25T10:32:47.685Z,16.00
2017-12-25T10:33:47.686Z,20.00
2017-12-25T10:34:47.689Z,20.00
2017-12-25T10:35:47.690Z,20.00
2017-12-25T10:36:47.693Z,20.00
2017-12-25T10:37:47.695Z,20.00
2017-12-25T10:38:47.699Z,16.00
2017-12-25T10:39:47.699Z,16.00
2017-12-25T10:40:47.706Z,16.00
2017-12-25T10:41:47.704Z,16.00
2017-12-25T10:42:47.708Z,16.00
2017-12-25T10:43:47.710Z,20.00
2017-12-25T10:44:47.712Z,20.00
2017-12-25T10:45:47.716Z,20.00
2017-12-25T10:46:47.718Z,20.00
2017-12-25T10:47:47.721Z,20.00
2017-12-25T10:48:47.722Z,24.00
2017-12-25T10:49:47.724Z,24.00
2017-12-25T10:50:47.728Z,20.00
2017-12-25T10:51:47.727Z,20.00
2017-12-25T10:52:47.732Z,20.00
2017-12-25T10:53:47.733Z,24.00
2017-12-25T10:54:47.742Z,24.00
2017-12-25T10:55:47.740Z,20.00
2017-12-25T10:56:47.741Z,20.00
2017-12-25T10:57:47.744Z,20.00
2017-12-25T10:58:47.747Z,16.00
2017-12-25T10:59:47.749Z,20.00
2017-12-25T11:00:47.752Z,20.00
2017-12-25T11:01:47.761Z,20.00
2017-12-25T11:02:47.757Z,16.00
2017-12-25T11:03:47.758Z,16.00
2017-12-25T11:04:47.768Z,16.00
2017-12-25T11:05:47.765Z,20.00
2017-12-25T11:06:47.768Z,20.00
2017-12-25T11:07:47.768Z,20.00
2017-12-25T11:08:47.771Z,20.00
2017-12-25T11:09:47.773Z,20.00
2017-12-25T11:10:47.778Z,20.00
2017-12-25T11:11:47.779Z,20.00
2017-12-25T11:12:47.781Z,20.00
2017-12-25T11:13:47.784Z,24.00
2017-12-25T11:14:47.787Z,24.00
2017-12-25T11:15:47.789Z,28.00
2017-12-25T11:16:47.791Z,24.00
2017-12-25T11:17:47.794Z,24.00
2017-12-25T11:18:47.797Z,20.00
2017-12-25T11:19:47.798Z,20.00
2017-12-25T11:20:47.802Z,24.00
2017-12-25T11:21:47.804Z,24.00
2017-12-25T11:22:47.808Z,20.00
2017-12-25T11:23:47.809Z,24.00
2017-12-25T11:24:47.811Z,24.00
2017-12-25T11:25:47.813Z,24.00
2017-12-25T11:26:47.817Z,20.00
2017-12-25T11:27:47.818Z,24.00
2017-12-25T11:28:47.820Z,24.00
2017-12-25T11:29:47.823Z,28.00
2017-12-25T11:30:47.827Z,28.00
2017-12-25T11:31:47.827Z,28.00
2017-12-25T11:32:47.831Z,28.00
2017-12-25T11:33:47.833Z,28.00
2017-12-25T11:34:47.835Z,28.00
2017-12-25T11:35:47.839Z,32.00
2017-12-25T11:36:47.840Z,32.00
2017-12-25T11:37:47.843Z,32.00
2017-12-25T11:38:47.846Z,28.00
2017-12-25T11:39:47.845Z,28.00
2017-12-25T11:40:47.851Z,32.00
2017-12-25T11:41:47.850Z,32.00
2017-12-25T11:42:47.855Z,32.00
2017-12-25T11:43:47.857Z,32.00
2017-12-25T11:44:47.860Z,36.00
2017-12-25T11:45:47.862Z,40.00
2017-12-25T11:46:47.866Z,36.00
2017-12-25T11:47:47.868Z,32.00
2017-12-25T11:48:47.870Z,32.00
2017-12-25T11:49:47.876Z,36.00
2017-12-25T11:50:47.876Z,32.00
2017-12-25T11:51:47.877Z,32.00
2017-12-25T11:52:47.879Z,36.00
2017-12-25T11:53:47.883Z,32.00
2017-12-25T11:54:47.885Z,32.00
2017-12-25T11:55:47.888Z,32.00
2017-12-25T11:56:47.893Z,36.00
2017-12-25T11:57:47.892Z,36.00
2017-12-25T11:58:47.900Z,36.00
2017-12-25T11:59:47.897Z,36.00
2017-12-25T12:00:47.900Z,36.00
2017-12-25T12:01:47.903Z,36.00
2017-12-25T12:02:47.907Z,32.00
2017-12-25T12:03:47.928Z,36.00
2017-12-25T12:04:47.911Z,36.00
2017-12-25T12:05:47.913Z,36.00
2017-12-25T12:06:47.918Z,32.00
2017-12-25T12:07:47.916Z,36.00
2017-12-25T12:08:47.919Z,36.00
2017-12-25T12:09:47.922Z,36.00
2017-12-25T12:10:47.926Z,40.00
2017-12-25T12:11:47.927Z,40.00
2017-12-25T12:12:47.929Z,40.00
2017-12-25T12:13:47.934Z,40.00
2017-12-25T12:14:47.936Z,40.00
2017-12-25T12:15:47.937Z,40.00
2017-12-25T12:16:47.939Z,36.00
2017-12-25T12:17:47.945Z,36.00
2017-12-25T12:18:47.945Z,32.00
2017-12-25T12:19:47.948Z,32.00
2017-12-25T12:20:47.950Z,32.00
2017-12-25T12:21:47.953Z,32.00
2017-12-25T12:22:47.955Z,32.00
2017-12-25T12:23:47.965Z,32.00
2017-12-25T12:24:47.969Z,32.00
2017-12-25T12:25:47.961Z,32.00
2017-12-25T12:26:47.969Z,32.00
2017-12-25T12:27:47.967Z,32.00
2017-12-25T12:28:47.970Z,32.00
2017-12-25T12:29:47.978Z,32.00
2017-12-25T12:30:47.974Z,32.00
2017-12-25T12:31:47.977Z,32.00
2017-12-25T12:32:47.981Z,28.00
2017-12-25T12:33:47.983Z,32.00
2017-12-25T12:34:47.986Z,28.00
2017-12-25T12:35:47.987Z,32.00
2017-12-25T12:36:47.990Z,28.00
2017-12-25T12:37:47.992Z,28.00
2017-12-25T12:38:47.995Z,32.00
2017-12-25T12:39:47.996Z,28.00
2017-12-25T12:40:48.000Z,32.00
2017-12-25T12:41:48.002Z,28.00
2017-12-25T12:42:48.006Z,28.00
2017-12-25T12:43:48.007Z,32.00
2017-12-25T12:44:48.011Z,28.00
2017-12-25T12:45:48.013Z,28.00
2017-12-25T12:46:48.016Z,28.00
2017-12-25T12:47:48.018Z,28.00
2017-12-25T12:48:48.020Z,32.00
2017-12-25T12:49:48.024Z,28.00
2017-12-25T12:50:48.026Z,28.00
2017-12-25T12:51:48.060Z,32.00
2017-12-25T12:52:48.031Z,32.00
2017-12-25T12:53:48.036Z,32.00
2017-12-25T12:54:48.036Z,32.00
2017-12-25T12:55:48.045Z,28.00
2017-12-25T12:56:48.047Z,32.00
2017-12-25T12:57:48.048Z,32.00
2017-12-25T12:58:48.046Z,32.00
2017-12-25T12:59:48.049Z,32.00
2017-12-25T13:00:48.077Z,32.00
2017-12-25T13:01:48.054Z,32.00
2017-12-25T13:02:48.056Z,32.00
2017-12-25T13:03:48.059Z,32.00
2017-12-25T13:04:48.062Z,36.00
2017-12-25T13:05:48.064Z,32.00
2017-12-25T13:06:48.065Z,32.00
2017-12-25T13:07:48.068Z,32.00
2017-12-25T13:08:48.071Z,32.00
2017-12-25T13:09:48.073Z,32.00